Ana Sayfa
METAR-TAF:

METAR-TAF

Havaalanları :

Claremore, Oklahoma, Amerika Birleşik Devletleri

Enlem: 36-17-40N, Boylam: 095-28-47W, yükseklik: 221 m

Güncel hava durumu gözlemi

Rapor saat 20:15 UTC de 14 dakika önce yapıldı.
Rüzgar kuzeydan 11 kt ve 18 kt'a kadar ani rüzgarlar
Sıcaklık 6°C
Nem 19%
Basınç 1029 hPa
Görüş mesafesi: 16.1 km
Açık gökyüzü

METAR: KGCM 182015Z AUTO 35011G18KT 10SM CLR 06/M16 A3039 RMK AO2

Saat: 14:29 (20:29 UTC)


TAF: eksik

4.000'den fazla havaalanı için hava durumu gözlemleri ve tahminleri (METAR ve TAF raporları).

Kullanılabilir istasyonlar harita üzerinde sarı ve kırmızı noktalarla gösterilir.

İstasyonun adını görmek için fareyi noktanın üzerinde gezdirin.

Sonrasında hava gözlem ve tahminlerini görmek için tıklayın.

Haritayı değiştirmek için: yaklaştırmak için siyah artı işaretli yeşil düğmeye ve uzaklaştırmak için de eksi işaretli düğmeye hızla tıklayın; bitişik haritalar için yeşil okları kullanın.


METAR-TAF: